Time;durP1;ratioP1;P1;durP2;ratioP2;P2;SDS_P1;SDS_P2;PMS_P1;PMS_P2;Temp;Humidity;BMP_temperature;BMP_pressure;BME280_temperature;BME280_humidity;BME280_pressure;Samples;Min_cycle;Max_cycle;Signal;HPM_P1;HPM_P2
2022/02/26 00:01:01;;;;;;;127.63;64.20;;;;;;;;;;5053876;28;20400;-61
2022/02/26 00:03:26;;;;;;;77.63;41.08;;;;;;;;;;5053983;28;20099;-61
2022/02/26 00:05:52;;;;;;;73.50;39.15;;;;;;;;;;5053978;28;20025;-61
2022/02/26 00:08:17;;;;;;;75.65;40.83;;;;;;;;;;5053746;28;20036;-61
2022/02/26 00:10:43;;;;;;;94.80;51.85;;;;;;;;;;5053903;28;20029;-61
2022/02/26 00:13:09;;;;;;;111.18;56.55;;;;;;;;;;5053698;28;20028;-61
2022/02/26 00:15:34;;;;;;;109.72;57.00;;;;;;;;;;5035998;28;20029;-61
2022/02/26 00:18:00;;;;;;;118.47;65.40;;;;;;;;;;5053713;28;20029;-61
2022/02/26 00:20:25;;;;;;;99.88;54.28;;;;;;;;;;5053806;28;20045;-61
2022/02/26 00:22:50;;;;;;;84.43;46.13;;;;;;;;;;5053267;28;20013;-61
2022/02/26 00:25:16;;;;;;;80.68;45.20;;;;;;;;;;5052126;28;20029;-61
2022/02/26 00:27:41;;;;;;;84.00;47.22;;;;;;;;;;5053306;28;20103;-61
2022/02/26 00:30:07;;;;;;;51.17;30.05;;;;;;;;;;5053441;28;20037;-62
2022/02/26 00:32:32;;;;;;;51.25;29.00;;;;;;;;;;5053648;28;20112;-61
2022/02/26 00:34:59;;;;;;;45.50;25.67;;;;;;;;;;5053482;28;20029;-61
2022/02/26 00:37:24;;;;;;;38.15;23.48;;;;;;;;;;5052736;28;20028;-61
2022/02/26 00:39:51;;;;;;;55.22;28.70;;;;;;;;;;5035430;28;20057;-61
2022/02/26 00:42:16;;;;;;;49.35;27.05;;;;;;;;;;5053284;28;20082;-61
2022/02/26 00:44:42;;;;;;;47.63;27.17;;;;;;;;;;5053374;28;20536;-62
2022/02/26 00:47:08;;;;;;;62.40;31.73;;;;;;;;;;5052998;28;20023;-61
2022/02/26 00:49:47;;;;;;;46.67;26.58;;;;;;;;;;5052968;28;20550;-61
2022/02/26 00:52:16;;;;;;;46.17;25.58;;;;;;;;;;5053081;28;20393;-61
2022/02/26 00:54:41;;;;;;;44.72;24.38;;;;;;;;;;5053146;28;20021;-61
2022/02/26 00:57:07;;;;;;;39.70;22.38;;;;;;;;;;5051928;28;20124;-61
2022/02/26 00:59:32;;;;;;;39.35;22.25;;;;;;;;;;5053152;28;20029;-62
2022/02/26 01:01:58;;;;;;;40.03;23.05;;;;;;;;;;5053154;28;20032;-61
2022/02/26 01:04:24;;;;;;;45.03;24.30;;;;;;;;;;5053085;28;20484;-61
2022/02/26 01:06:50;;;;;;;44.30;23.65;;;;;;;;;;5053120;28;20025;-61
2022/02/26 01:09:16;;;;;;;44.58;24.90;;;;;;;;;;5052944;28;20455;-61
2022/02/26 01:11:41;;;;;;;41.85;23.38;;;;;;;;;;5052047;28;20071;-61
2022/02/26 01:14:07;;;;;;;37.63;22.38;;;;;;;;;;5053034;28;20094;-61
2022/02/26 01:16:33;;;;;;;44.70;27.15;;;;;;;;;;5053231;28;20033;-61
2022/02/26 01:18:58;;;;;;;40.55;24.85;;;;;;;;;;5053061;28;20036;-61
2022/02/26 01:21:24;;;;;;;40.53;22.65;;;;;;;;;;5051765;28;20033;-61
2022/02/26 01:23:49;;;;;;;39.90;22.23;;;;;;;;;;5052884;28;20017;-61
2022/02/26 01:26:18;;;;;;;41.45;22.83;;;;;;;;;;5052864;28;20021;-61
2022/02/26 01:28:44;;;;;;;36.08;21.13;;;;;;;;;;5052824;28;20486;-61
2022/02/26 01:31:09;;;;;;;39.05;21.52;;;;;;;;;;5052663;28;20033;-61
2022/02/26 01:33:35;;;;;;;37.45;21.70;;;;;;;;;;5051361;28;20346;-61
2022/02/26 01:36:00;;;;;;;42.03;21.88;;;;;;;;;;5051678;28;20392;-62
2022/02/26 01:38:27;;;;;;;38.25;21.65;;;;;;;;;;5052759;28;20067;-61
2022/02/26 01:40:52;;;;;;;41.88;24.60;;;;;;;;;;5052744;28;20050;-61
2022/02/26 01:43:18;;;;;;;39.15;22.75;;;;;;;;;;5051503;28;20017;-62
2022/02/26 01:45:43;;;;;;;41.00;22.95;;;;;;;;;;5052837;28;20029;-61
2022/02/26 01:48:09;;;;;;;38.00;21.58;;;;;;;;;;5052155;28;20091;-61
2022/02/26 01:50:34;;;;;;;41.20;21.55;;;;;;;;;;5053061;28;20033;-61
2022/02/26 01:53:00;;;;;;;35.65;21.27;;;;;;;;;;5051313;28;20032;-61
2022/02/26 01:55:26;;;;;;;41.38;21.40;;;;;;;;;;5052667;28;20029;-61
2022/02/26 01:57:52;;;;;;;40.45;21.60;;;;;;;;;;5053851;28;20040;-61
2022/02/26 02:00:18;;;;;;;157.65;61.80;;;;;;;;;;5056153;28;20483;-61
2022/02/26 02:02:43;;;;;;;327.67;153.38;;;;;;;;;;5056385;28;20025;-61
2022/02/26 02:05:09;;;;;;;369.55;146.77;;;;;;;;;;5056282;28;20388;-61
2022/02/26 02:07:34;;;;;;;283.25;120.70;;;;;;;;;;5056085;28;20040;-61
2022/02/26 02:10:00;;;;;;;265.08;105.03;;;;;;;;;;5054629;28;20365;-61
2022/02/26 02:12:25;;;;;;;85.75;40.47;;;;;;;;;;5056106;28;20170;-61
2022/02/26 02:14:51;;;;;;;53.92;28.00;;;;;;;;;;5055866;28;20499;-61
2022/02/26 02:17:16;;;;;;;50.65;26.35;;;;;;;;;;5055986;28;20013;-61
2022/02/26 02:19:41;;;;;;;57.78;27.55;;;;;;;;;;5055884;28;20393;-60
2022/02/26 02:22:07;;;;;;;59.45;29.15;;;;;;;;;;5055818;28;20036;-61
2022/02/26 02:24:33;;;;;;;57.08;26.40;;;;;;;;;;5054462;28;20031;-61
2022/02/26 02:26:59;;;;;;;51.58;26.33;;;;;;;;;;5055951;28;20021;-61
2022/02/26 02:29:25;;;;;;;42.75;23.33;;;;;;;;;;5055613;28;20082;-61
2022/02/26 02:31:50;;;;;;;38.85;21.50;;;;;;;;;;5055400;28;20029;-61
2022/02/26 02:34:16;;;;;;;37.70;21.13;;;;;;;;;;5054310;28;20055;-60
2022/02/26 02:36:45;;;;;;;44.80;22.50;;;;;;;;;;5054317;28;20051;-61
2022/02/26 02:39:12;;;;;;;39.17;22.48;;;;;;;;;;5055511;28;20370;-61
2022/02/26 02:41:38;;;;;;;38.33;20.17;;;;;;;;;;5055371;28;20027;-61
2022/02/26 02:44:04;;;;;;;39.03;21.27;;;;;;;;;;5054467;28;20115;-61
2022/02/26 02:46:29;;;;;;;38.72;21.27;;;;;;;;;;5055204;28;20104;-61
2022/02/26 02:48:55;;;;;;;38.88;21.05;;;;;;;;;;5053711;28;20045;-61
2022/02/26 02:51:21;;;;;;;41.47;22.83;;;;;;;;;;5055440;28;20029;-62
2022/02/26 02:53:46;;;;;;;40.55;22.42;;;;;;;;;;5055272;28;20025;-61
2022/02/26 02:56:12;;;;;;;44.30;23.25;;;;;;;;;;5053861;28;20021;-61
2022/02/26 02:58:37;;;;;;;40.92;22.65;;;;;;;;;;5055023;28;20032;-61
2022/02/26 03:01:03;;;;;;;38.58;22.13;;;;;;;;;;5055131;28;20411;-61
2022/02/26 03:03:28;;;;;;;40.88;22.17;;;;;;;;;;5054803;28;20044;-61
2022/02/26 03:05:54;;;;;;;41.30;23.02;;;;;;;;;;5055011;28;20021;-61
2022/02/26 03:08:23;;;;;;;35.53;21.00;;;;;;;;;;5054540;28;20473;-61
2022/02/26 03:10:49;;;;;;;42.33;22.38;;;;;;;;;;5055046;28;20021;-61
2022/02/26 03:13:15;;;;;;;42.10;22.83;;;;;;;;;;5055063;28;20057;-61
2022/02/26 03:15:40;;;;;;;37.55;21.00;;;;;;;;;;5055004;28;20492;-61
2022/02/26 03:18:05;;;;;;;37.28;21.15;;;;;;;;;;5053454;28;20039;-61
2022/02/26 03:20:31;;;;;;;41.20;22.25;;;;;;;;;;5054873;28;20017;-62
2022/02/26 03:22:56;;;;;;;46.95;24.70;;;;;;;;;;5054378;28;20064;-62
2022/02/26 03:25:23;;;;;;;46.35;24.80;;;;;;;;;;5054566;28;20074;-62
2022/02/26 03:27:51;;;;;;;43.30;23.30;;;;;;;;;;5054479;28;20535;-61
2022/02/26 03:30:18;;;;;;;38.83;22.10;;;;;;;;;;5053329;28;20032;-61
2022/02/26 03:32:43;;;;;;;50.92;28.92;;;;;;;;;;5054764;28;20033;-61
2022/02/26 03:35:09;;;;;;;51.17;29.73;;;;;;;;;;5054475;28;20047;-62
2022/02/26 03:37:34;;;;;;;52.00;26.67;;;;;;;;;;5054636;28;20025;-62
2022/02/26 03:40:00;;;;;;;46.88;23.10;;;;;;;;;;5054129;28;20483;-61
2022/02/26 03:42:25;;;;;;;41.92;21.88;;;;;;;;;;5054498;28;20028;-62
2022/02/26 03:44:51;;;;;;;40.55;21.63;;;;;;;;;;5053230;28;20075;-62
2022/02/26 03:47:17;;;;;;;40.95;22.52;;;;;;;;;;5054393;28;20039;-61
2022/02/26 03:49:43;;;;;;;43.83;23.85;;;;;;;;;;5053977;28;20440;-61
2022/02/26 03:52:08;;;;;;;40.00;22.52;;;;;;;;;;5053019;28;20025;-61
2022/02/26 03:54:34;;;;;;;46.05;27.48;;;;;;;;;;5054262;28;20021;-61
2022/02/26 03:56:59;;;;;;;41.47;21.02;;;;;;;;;;5053782;28;20558;-61
2022/02/26 03:59:25;;;;;;;42.13;22.13;;;;;;;;;;5052508;28;20017;-62
2022/02/26 04:01:51;;;;;;;40.10;21.63;;;;;;;;;;5053837;28;20385;-62
2022/02/26 04:04:16;;;;;;;43.22;22.67;;;;;;;;;;5053874;28;20028;-62
2022/02/26 04:06:42;;;;;;;42.30;22.90;;;;;;;;;;5052565;28;20108;-61
2022/02/26 04:09:07;;;;;;;49.50;24.13;;;;;;;;;;5054169;28;20029;-61
2022/02/26 04:11:33;;;;;;;46.92;23.55;;;;;;;;;;5053751;28;20048;-61
2022/02/26 04:13:58;;;;;;;43.40;22.98;;;;;;;;;;5053901;28;20108;-61
2022/02/26 04:16:24;;;;;;;48.08;25.88;;;;;;;;;;5053924;28;20499;-61
2022/02/26 04:18:50;;;;;;;45.95;24.58;;;;;;;;;;5054015;28;20372;-62
2022/02/26 04:21:16;;;;;;;45.95;24.23;;;;;;;;;;5052932;28;20033;-62
2022/02/26 04:23:41;;;;;;;42.40;22.48;;;;;;;;;;5053626;28;20017;-61
2022/02/26 04:26:07;;;;;;;44.45;23.60;;;;;;;;;;5053606;28;20064;-61
2022/02/26 04:28:33;;;;;;;46.28;22.73;;;;;;;;;;5053251;28;20025;-62
2022/02/26 04:30:59;;;;;;;43.53;22.55;;;;;;;;;;5053371;28;20066;-62
2022/02/26 04:33:27;;;;;;;46.17;23.98;;;;;;;;;;5053198;28;20532;-62
2022/02/26 04:35:52;;;;;;;41.05;22.40;;;;;;;;;;5053176;28;20059;-62
2022/02/26 04:38:18;;;;;;;40.17;22.40;;;;;;;;;;5053310;28;20024;-62
2022/02/26 04:40:43;;;;;;;42.47;22.65;;;;;;;;;;5053269;28;20017;-62
2022/02/26 04:43:09;;;;;;;43.08;22.75;;;;;;;;;;5053252;28;20014;-62
2022/02/26 04:45:35;;;;;;;39.78;21.85;;;;;;;;;;5053211;28;20036;-62
2022/02/26 04:48:01;;;;;;;43.60;23.90;;;;;;;;;;5052808;28;20060;-62
2022/02/26 04:50:28;;;;;;;47.63;25.13;;;;;;;;;;5053496;28;20063;-61
2022/02/26 04:52:53;;;;;;;43.20;23.42;;;;;;;;;;5053366;28;20025;-61
2022/02/26 04:55:19;;;;;;;41.72;22.80;;;;;;;;;;5053272;28;20059;-61
2022/02/26 04:57:44;;;;;;;44.78;23.90;;;;;;;;;;5053226;28;20032;-61
2022/02/26 05:00:10;;;;;;;41.22;22.63;;;;;;;;;;5053231;28;20094;-61
2022/02/26 05:02:36;;;;;;;44.70;24.45;;;;;;;;;;5053251;28;20029;-61
2022/02/26 05:05:02;;;;;;;41.25;22.90;;;;;;;;;;5053329;28;20021;-62
2022/02/26 05:07:27;;;;;;;40.90;23.00;;;;;;;;;;5053356;28;20032;-62
2022/02/26 05:09:53;;;;;;;44.17;22.40;;;;;;;;;;5051991;28;20123;-61
2022/02/26 05:12:18;;;;;;;43.40;25.02;;;;;;;;;;5052996;28;20029;-62
2022/02/26 05:14:44;;;;;;;45.00;24.50;;;;;;;;;;5053168;28;20033;-61
2022/02/26 05:17:09;;;;;;;42.15;23.45;;;;;;;;;;5052925;28;20114;-61
2022/02/26 05:19:35;;;;;;;38.63;22.95;;;;;;;;;;5053038;28;20424;-61
2022/02/26 05:22:00;;;;;;;45.83;24.00;;;;;;;;;;5052983;28;20146;-62
2022/02/26 05:24:26;;;;;;;40.67;22.40;;;;;;;;;;5053112;28;20049;-62
2022/02/26 05:26:51;;;;;;;42.03;22.45;;;;;;;;;;5052855;28;20461;-62
2022/02/26 05:29:17;;;;;;;46.70;24.42;;;;;;;;;;5052874;28;20025;-62
2022/02/26 05:31:42;;;;;;;103.03;40.90;;;;;;;;;;5053832;28;20010;-62
2022/02/26 05:34:07;;;;;;;63.88;28.50;;;;;;;;;;5056498;28;20426;-61
2022/02/26 05:36:33;;;;;;;54.75;26.77;;;;;;;;;;5055588;28;20103;-61
2022/02/26 05:38:58;;;;;;;53.08;27.25;;;;;;;;;;5056622;28;20059;-62
2022/02/26 05:41:24;;;;;;;42.75;22.08;;;;;;;;;;5055319;28;20092;-62
2022/02/26 05:43:49;;;;;;;47.05;22.35;;;;;;;;;;5056755;28;20487;-62
2022/02/26 05:46:15;;;;;;;45.40;21.42;;;;;;;;;;5056610;28;20028;-62
2022/02/26 05:48:40;;;;;;;40.97;21.85;;;;;;;;;;5055987;28;20133;-62
2022/02/26 05:51:07;;;;;;;45.35;24.38;;;;;;;;;;5056465;28;20120;-62
2022/02/26 05:53:32;;;;;;;53.22;27.27;;;;;;;;;;5056579;28;20083;-62
2022/02/26 05:55:57;;;;;;;63.42;31.83;;;;;;;;;;5056506;28;20033;-62
2022/02/26 05:58:23;;;;;;;72.35;33.03;;;;;;;;;;5056253;28;20032;-61
2022/02/26 06:00:49;;;;;;;76.65;34.05;;;;;;;;;;5056370;28;20107;-62
2022/02/26 06:03:14;;;;;;;67.75;33.67;;;;;;;;;;5056203;28;20480;-62
2022/02/26 06:05:40;;;;;;;69.90;36.47;;;;;;;;;;5056036;28;20032;-62
2022/02/26 06:08:06;;;;;;;62.85;30.98;;;;;;;;;;5056405;28;20483;-62
2022/02/26 06:10:32;;;;;;;70.20;32.03;;;;;;;;;;5056092;28;20025;-62
2022/02/26 06:12:57;;;;;;;50.00;26.15;;;;;;;;;;5056276;28;20376;-62
2022/02/26 06:15:23;;;;;;;52.08;26.45;;;;;;;;;;5056249;28;20072;-62
2022/02/26 06:17:49;;;;;;;48.72;23.42;;;;;;;;;;5056151;28;20049;-62
2022/02/26 06:20:14;;;;;;;143.98;75.53;;;;;;;;;;5056060;28;20448;-62
2022/02/26 06:22:39;;;;;;;102.15;55.83;;;;;;;;;;5055831;28;20021;-62
2022/02/26 06:25:05;;;;;;;69.88;35.15;;;;;;;;;;5055986;28;20075;-62
2022/02/26 06:27:34;;;;;;;59.90;33.08;;;;;;;;;;5055821;28;20012;-62
2022/02/26 06:30:00;;;;;;;56.72;32.47;;;;;;;;;;5054320;28;20062;-62
2022/02/26 06:32:25;;;;;;;56.13;32.28;;;;;;;;;;5054366;28;20021;-62
2022/02/26 06:34:50;;;;;;;51.30;28.63;;;;;;;;;;5055316;28;20472;-62
2022/02/26 06:37:16;;;;;;;59.35;31.95;;;;;;;;;;5055223;28;20044;-62
2022/02/26 06:39:41;;;;;;;59.90;33.58;;;;;;;;;;5055329;28;20664;-62
2022/02/26 06:42:07;;;;;;;59.75;33.17;;;;;;;;;;5055300;28;20144;-62
2022/02/26 06:44:32;;;;;;;59.75;31.48;;;;;;;;;;5054750;28;20500;-62
2022/02/26 06:46:58;;;;;;;57.45;31.70;;;;;;;;;;5055361;28;20020;-62
2022/02/26 06:49:23;;;;;;;50.50;28.77;;;;;;;;;;5054117;28;20053;-62
2022/02/26 06:51:49;;;;;;;52.22;28.38;;;;;;;;;;5055241;28;20033;-62
2022/02/26 06:54:14;;;;;;;64.35;33.63;;;;;;;;;;5054312;28;20029;-62
2022/02/26 06:56:39;;;;;;;50.00;25.80;;;;;;;;;;5055427;28;20021;-62
2022/02/26 06:59:05;;;;;;;52.75;28.65;;;;;;;;;;5054736;28;20029;-62
2022/02/26 07:01:31;;;;;;;46.97;27.08;;;;;;;;;;5055096;28;20017;-62
2022/02/26 07:03:56;;;;;;;46.53;26.15;;;;;;;;;;5055196;28;20107;-62
2022/02/26 07:06:21;;;;;;;46.60;27.00;;;;;;;;;;5054948;28;20074;-62
2022/02/26 07:08:47;;;;;;;50.95;27.38;;;;;;;;;;5055288;28;20051;-62
2022/02/26 07:11:13;;;;;;;51.08;28.00;;;;;;;;;;5055102;28;20017;-62
2022/02/26 07:13:38;;;;;;;51.05;29.35;;;;;;;;;;5054951;28;20033;-62
2022/02/26 07:16:04;;;;;;;58.97;32.95;;;;;;;;;;5054899;28;20021;-62
2022/02/26 07:18:29;;;;;;;56.28;31.58;;;;;;;;;;5054554;28;21900;-62
2022/02/26 07:20:56;;;;;;;54.72;29.98;;;;;;;;;;5054712;28;20508;-62
2022/02/26 07:23:21;;;;;;;60.67;32.17;;;;;;;;;;5054720;28;20017;-62
2022/02/26 07:25:46;;;;;;;59.05;33.70;;;;;;;;;;5054780;28;20480;-62
2022/02/26 07:28:12;;;;;;;77.40;40.53;;;;;;;;;;5054782;28;20082;-62
2022/02/26 07:30:38;;;;;;;63.78;37.53;;;;;;;;;;5054562;28;20464;-62
2022/02/26 07:33:04;;;;;;;57.15;34.40;;;;;;;;;;5054495;28;20024;-62
2022/02/26 07:35:29;;;;;;;55.35;32.95;;;;;;;;;;5054557;28;20449;-62
2022/02/26 07:37:55;;;;;;;42.47;26.05;;;;;;;;;;5054681;28;20025;-62
2022/02/26 07:40:20;;;;;;;37.45;21.95;;;;;;;;;;5054509;28;20048;-62
2022/02/26 07:42:48;;;;;;;43.80;23.00;;;;;;;;;;5054476;28;20060;-62
2022/02/26 07:45:14;;;;;;;36.40;20.65;;;;;;;;;;5054146;28;20074;-62
2022/02/26 07:47:39;;;;;;;31.05;18.77;;;;;;;;;;5054032;28;20025;-62
2022/02/26 07:50:05;;;;;;;34.20;19.85;;;;;;;;;;5054519;28;20041;-62
2022/02/26 07:52:32;;;;;;;34.70;19.38;;;;;;;;;;5054050;28;20033;-62
2022/02/26 07:54:58;;;;;;;33.75;19.25;;;;;;;;;;5053118;28;20100;-62
2022/02/26 07:57:23;;;;;;;34.05;19.90;;;;;;;;;;5053903;28;20044;-62
2022/02/26 07:59:49;;;;;;;34.35;19.27;;;;;;;;;;5054135;28;20025;-62
2022/02/26 08:02:14;;;;;;;35.60;20.33;;;;;;;;;;5054052;28;20159;-62
2022/02/26 08:04:39;;;;;;;36.45;19.83;;;;;;;;;;5053891;28;20013;-62
2022/02/26 08:07:05;;;;;;;35.20;20.05;;;;;;;;;;5053735;28;20027;-62
2022/02/26 08:09:30;;;;;;;33.55;19.73;;;;;;;;;;5053852;28;20503;-62
2022/02/26 08:11:56;;;;;;;38.97;21.25;;;;;;;;;;5053668;28;20374;-62
2022/02/26 08:14:23;;;;;;;37.30;20.65;;;;;;;;;;5052368;28;20028;-62
2022/02/26 08:16:48;;;;;;;38.25;21.25;;;;;;;;;;5053853;28;20119;-62
2022/02/26 08:19:14;;;;;;;40.63;22.40;;;;;;;;;;5053777;28;20119;-62
2022/02/26 08:21:40;;;;;;;42.13;22.20;;;;;;;;;;5053535;28;20067;-62
2022/02/26 08:24:06;;;;;;;35.00;20.23;;;;;;;;;;5053573;28;20067;-62
2022/02/26 08:26:31;;;;;;;45.20;24.80;;;;;;;;;;5053497;28;20090;-62
2022/02/26 08:28:57;;;;;;;45.85;25.65;;;;;;;;;;5053740;28;20052;-63
2022/02/26 08:31:22;;;;;;;50.45;26.75;;;;;;;;;;5053121;28;20056;-62
2022/02/26 08:33:48;;;;;;;39.85;23.40;;;;;;;;;;5053224;28;20021;-62
2022/02/26 08:36:14;;;;;;;48.25;27.92;;;;;;;;;;5052341;28;20029;-62
2022/02/26 08:38:39;;;;;;;49.25;27.52;;;;;;;;;;5053188;28;20039;-62
2022/02/26 08:41:05;;;;;;;40.08;23.67;;;;;;;;;;5053171;28;20025;-62
2022/02/26 08:43:30;;;;;;;56.70;29.08;;;;;;;;;;5053350;28;20166;-62
2022/02/26 08:45:56;;;;;;;40.03;23.80;;;;;;;;;;5052126;28;20025;-62
2022/02/26 08:48:21;;;;;;;43.15;23.30;;;;;;;;;;5052805;28;20071;-62
2022/02/26 08:50:47;;;;;;;45.13;24.67;;;;;;;;;;5052855;28;20498;-62
2022/02/26 08:53:12;;;;;;;42.80;25.23;;;;;;;;;;5053374;28;20029;-62
2022/02/26 08:55:37;;;;;;;50.05;29.13;;;;;;;;;;5053160;28;20059;-62
2022/02/26 08:58:03;;;;;;;39.45;23.02;;;;;;;;;;5053475;28;20350;-62
2022/02/26 09:00:28;;;;;;;43.58;23.42;;;;;;;;;;5053319;28;20060;-62
2022/02/26 09:02:54;;;;;;;47.28;24.35;;;;;;;;;;5053295;28;20029;-62
2022/02/26 09:05:21;;;;;;;38.03;22.05;;;;;;;;;;5053187;28;20060;-62
2022/02/26 09:07:46;;;;;;;43.65;23.30;;;;;;;;;;5055715;28;20021;-62
2022/02/26 09:10:13;;;;;;;37.75;22.27;;;;;;;;;;5057299;28;20040;-62
2022/02/26 09:12:38;;;;;;;40.25;22.50;;;;;;;;;;5057252;28;20491;-62
2022/02/26 09:15:04;;;;;;;45.28;22.90;;;;;;;;;;5056974;28;20021;-62
2022/02/26 09:17:30;;;;;;;39.50;23.17;;;;;;;;;;5055846;28;20070;-62
2022/02/26 09:19:55;;;;;;;39.97;22.65;;;;;;;;;;5056817;28;20037;-62
2022/02/26 09:22:21;;;;;;;39.35;22.40;;;;;;;;;;5057126;28;20021;-62
2022/02/26 09:24:46;;;;;;;39.60;22.50;;;;;;;;;;5056866;28;20025;-62
2022/02/26 09:27:12;;;;;;;38.53;22.60;;;;;;;;;;5056932;28;20017;-62
2022/02/26 09:29:37;;;;;;;47.42;24.13;;;;;;;;;;5057094;28;20493;-62
2022/02/26 09:32:03;;;;;;;49.58;26.67;;;;;;;;;;5056915;28;20021;-62
2022/02/26 09:34:29;;;;;;;46.53;26.27;;;;;;;;;;5056778;28;20492;-62
2022/02/26 09:36:54;;;;;;;55.17;29.67;;;;;;;;;;5056378;28;20102;-62
2022/02/26 09:39:21;;;;;;;50.70;26.15;;;;;;;;;;5056716;28;20029;-62
2022/02/26 09:41:47;;;;;;;45.88;24.88;;;;;;;;;;5056884;28;20528;-62
2022/02/26 09:44:14;;;;;;;38.55;20.98;;;;;;;;;;5056627;28;20048;-62
2022/02/26 09:46:39;;;;;;;33.88;18.98;;;;;;;;;;5056441;28;20106;-62
2022/02/26 09:49:05;;;;;;;34.58;18.02;;;;;;;;;;5054929;28;20076;-62
2022/02/26 09:51:32;;;;;;;39.65;20.38;;;;;;;;;;5056812;28;20029;-62
2022/02/26 09:53:57;;;;;;;35.70;19.63;;;;;;;;;;5055084;28;20033;-62
2022/02/26 09:56:23;;;;;;;33.78;19.02;;;;;;;;;;5055147;28;20029;-63
2022/02/26 09:58:49;;;;;;;31.10;18.05;;;;;;;;;;5056488;28;20028;-62
2022/02/26 10:01:14;;;;;;;32.42;18.80;;;;;;;;;;5056426;28;20009;-62
2022/02/26 10:03:40;;;;;;;31.58;18.90;;;;;;;;;;5056403;28;20033;-62
2022/02/26 10:06:09;;;;;;;33.03;18.48;;;;;;;;;;5055098;28;20086;-62
2022/02/26 10:08:42;;;;;;;27.52;17.73;;;;;;;;;;5055007;28;20100;-62
2022/02/26 10:11:25;;;;;;;29.98;18.90;;;;;;;;;;5054679;28;20036;-62
2022/02/26 10:13:51;;;;;;;38.50;21.88;;;;;;;;;;5055791;28;20116;-62
2022/02/26 10:16:16;;;;;;;33.47;19.70;;;;;;;;;;5055860;28;20411;-62
2022/02/26 10:18:54;;;;;;;34.70;19.23;;;;;;;;;;5053156;28;20108;-62
2022/02/26 10:21:30;;;;;;;31.45;19.63;;;;;;;;;;5055490;28;20447;-62
2022/02/26 10:23:56;;;;;;;31.77;19.17;;;;;;;;;;5054399;28;20029;-62
2022/02/26 10:26:27;;;;;;;29.25;17.30;;;;;;;;;;5055473;28;20063;-62
2022/02/26 10:29:06;;;;;;;36.22;19.90;;;;;;;;;;5055479;28;20037;-62
2022/02/26 10:31:48;;;;;;;32.55;18.35;;;;;;;;;;5055463;28;20511;-62
2022/02/26 10:34:28;;;;;;;35.00;19.85;;;;;;;;;;5055440;28;20025;-62
2022/02/26 10:37:00;;;;;;;33.88;20.52;;;;;;;;;;5055485;28;20024;-62
2022/02/26 10:39:26;;;;;;;47.35;24.92;;;;;;;;;;5055227;28;20481;-62
2022/02/26 10:41:51;;;;;;;41.85;20.80;;;;;;;;;;5055063;28;20013;-62
2022/02/26 10:44:20;;;;;;;36.78;20.00;;;;;;;;;;5055193;28;20080;-62
2022/02/26 10:46:45;;;;;;;33.85;20.40;;;;;;;;;;5055469;28;20349;-62
2022/02/26 10:49:13;;;;;;;40.05;21.88;;;;;;;;;;5054978;28;20065;-62
2022/02/26 10:51:41;;;;;;;42.63;22.98;;;;;;;;;;5055069;28;20029;-62
2022/02/26 10:54:09;;;;;;;38.67;20.25;;;;;;;;;;5055045;28;20029;-62
2022/02/26 10:56:41;;;;;;;37.45;21.73;;;;;;;;;;5055088;28;20021;-62
2022/02/26 10:59:08;;;;;;;41.60;22.90;;;;;;;;;;5055004;28;20035;-62
2022/02/26 11:01:34;;;;;;;55.50;25.75;;;;;;;;;;5055125;28;20009;-62
2022/02/26 11:04:01;;;;;;;38.08;20.35;;;;;;;;;;5053777;28;20036;-62
2022/02/26 11:06:27;;;;;;;33.10;19.42;;;;;;;;;;5054715;28;20028;-62
2022/02/26 11:08:52;;;;;;;32.22;19.27;;;;;;;;;;5053613;28;20041;-62
2022/02/26 11:11:18;;;;;;;35.50;20.95;;;;;;;;;;5054705;28;20104;-62
2022/02/26 11:13:45;;;;;;;35.33;20.27;;;;;;;;;;5054678;28;20033;-62
2022/02/26 11:16:11;;;;;;;28.90;17.95;;;;;;;;;;5054614;28;20464;-62
2022/02/26 11:18:41;;;;;;;33.50;19.45;;;;;;;;;;5054427;28;20033;-62
2022/02/26 11:21:08;;;;;;;35.40;20.27;;;;;;;;;;5053381;28;20051;-62
2022/02/26 11:23:34;;;;;;;34.97;20.58;;;;;;;;;;5054730;28;20029;-62
2022/02/26 11:25:59;;;;;;;34.05;19.42;;;;;;;;;;5054374;28;20066;-62
2022/02/26 11:28:26;;;;;;;32.40;19.35;;;;;;;;;;5053147;28;20025;-62
2022/02/26 11:30:55;;;;;;;51.13;27.98;;;;;;;;;;5054129;28;20028;-62
2022/02/26 11:33:21;;;;;;;35.70;21.30;;;;;;;;;;5054369;28;20053;-62
2022/02/26 11:35:50;;;;;;;36.03;19.13;;;;;;;;;;5054367;28;20432;-62
2022/02/26 11:38:17;;;;;;;33.95;19.02;;;;;;;;;;5052912;28;20495;-62
2022/02/26 11:40:42;;;;;;;36.55;20.85;;;;;;;;;;5054117;28;20392;-62
2022/02/26 11:43:28;;;;;;;31.20;18.27;;;;;;;;;;5054159;28;20021;-62
2022/02/26 11:45:53;;;;;;;36.90;21.38;;;;;;;;;;5053924;28;20064;-62
2022/02/26 11:48:19;;;;;;;37.78;21.50;;;;;;;;;;5053495;28;20072;-62
2022/02/26 11:50:44;;;;;;;34.33;20.58;;;;;;;;;;5054292;28;20041;-62
2022/02/26 11:53:13;;;;;;;37.35;21.80;;;;;;;;;;5053913;28;20112;-62
2022/02/26 11:55:39;;;;;;;28.13;17.42;;;;;;;;;;5052750;28;20045;-62
2022/02/26 11:58:09;;;;;;;27.85;16.50;;;;;;;;;;5052666;28;20025;-62
2022/02/26 12:00:36;;;;;;;37.03;21.42;;;;;;;;;;5053790;28;20082;-62
2022/02/26 12:03:15;;;;;;;43.10;24.08;;;;;;;;;;5052476;28;20025;-62
2022/02/26 12:05:40;;;;;;;35.05;20.17;;;;;;;;;;5052283;28;20017;-62
2022/02/26 12:08:09;;;;;;;37.17;21.85;;;;;;;;;;5053544;28;20028;-62
2022/02/26 12:10:35;;;;;;;38.85;21.98;;;;;;;;;;5053596;28;20028;-62
2022/02/26 12:13:02;;;;;;;35.22;20.02;;;;;;;;;;5053540;28;20044;-62
2022/02/26 12:15:32;;;;;;;33.28;20.92;;;;;;;;;;5053598;28;20037;-62
2022/02/26 12:18:05;;;;;;;32.20;19.98;;;;;;;;;;5053664;28;20094;-62
2022/02/26 12:20:32;;;;;;;25.27;16.88;;;;;;;;;;5053363;28;20040;-61
2022/02/26 12:23:10;;;;;;;44.17;22.15;;;;;;;;;;5053442;28;20082;-61
2022/02/26 12:25:40;;;;;;;33.33;19.08;;;;;;;;;;5053299;28;20025;-61
2022/02/26 12:28:14;;;;;;;114.55;40.42;;;;;;;;;;5052013;28;20025;-61
2022/02/26 12:31:00;;;;;;;93.35;33.80;;;;;;;;;;5053340;28;20068;-61
2022/02/26 12:33:25;;;;;;;25.95;17.23;;;;;;;;;;5052819;28;20036;-62
2022/02/26 12:36:06;;;;;;;26.63;17.92;;;;;;;;;;5053118;28;20035;-61
2022/02/26 12:38:32;;;;;;;28.48;18.25;;;;;;;;;;5053229;28;20527;-61
2022/02/26 12:40:57;;;;;;;30.50;19.50;;;;;;;;;;5051449;28;20021;-61
2022/02/26 12:43:27;;;;;;;30.33;18.90;;;;;;;;;;5052933;28;20519;-61
2022/02/26 12:45:52;;;;;;;44.42;21.80;;;;;;;;;;5052955;28;20088;-61
2022/02/26 12:48:18;;;;;;;29.15;17.55;;;;;;;;;;5052573;28;20102;-63
2022/02/26 12:50:43;;;;;;;28.85;17.00;;;;;;;;;;5053419;28;20036;-62
2022/02/26 12:53:09;;;;;;;24.00;16.48;;;;;;;;;;5052925;28;20087;-61
2022/02/26 12:55:34;;;;;;;27.52;15.77;;;;;;;;;;5052984;28;20021;-61
2022/02/26 12:58:00;;;;;;;25.77;15.73;;;;;;;;;;5052973;28;20550;-61
2022/02/26 13:00:26;;;;;;;25.80;15.85;;;;;;;;;;5052882;28;20104;-62
2022/02/26 13:02:59;;;;;;;26.95;16.60;;;;;;;;;;5053013;28;20049;-61
2022/02/26 13:05:28;;;;;;;26.38;16.42;;;;;;;;;;5052715;28;20060;-62
2022/02/26 13:07:57;;;;;;;125.68;41.65;;;;;;;;;;5052834;28;20021;-62
2022/02/26 13:10:33;;;;;;;27.10;16.75;;;;;;;;;;5052796;28;20547;-61
2022/02/26 13:13:19;;;;;;;24.30;15.60;;;;;;;;;;5052933;28;20117;-61
2022/02/26 13:15:46;;;;;;;26.25;16.27;;;;;;;;;;5052862;28;20037;-62
2022/02/26 13:18:12;;;;;;;26.40;16.42;;;;;;;;;;5051494;28;20021;-60
2022/02/26 13:20:39;;;;;;;42.75;18.35;;;;;;;;;;5052785;28;20532;-63
2022/02/26 13:23:05;;;;;;;37.85;19.10;;;;;;;;;;5051538;28;20043;-62
2022/02/26 13:25:32;;;;;;;40.63;20.42;;;;;;;;;;5052561;28;20033;-63
2022/02/26 13:27:58;;;;;;;37.90;19.25;;;;;;;;;;5052336;28;20464;-62
2022/02/26 13:30:25;;;;;;;36.10;18.77;;;;;;;;;;5052625;28;20028;-63
2022/02/26 13:32:52;;;;;;;25.90;15.73;;;;;;;;;;5052615;28;20021;-62
2022/02/26 13:35:18;;;;;;;73.45;25.95;;;;;;;;;;5052729;28;20480;-62
2022/02/26 13:37:46;;;;;;;23.08;14.70;;;;;;;;;;5052449;28;20017;-62
2022/02/26 13:40:13;;;;;;;22.25;14.07;;;;;;;;;;5052433;28;20029;-62
2022/02/26 13:42:40;;;;;;;22.58;13.20;;;;;;;;;;5052553;28;20009;-62
2022/02/26 13:45:07;;;;;;;22.35;14.07;;;;;;;;;;5052458;28;20033;-62
2022/02/26 13:47:33;;;;;;;23.65;15.30;;;;;;;;;;5052278;28;20017;-62
2022/02/26 13:49:59;;;;;;;22.17;14.13;;;;;;;;;;5051232;28;20055;-62
2022/02/26 13:52:26;;;;;;;28.50;15.20;;;;;;;;;;5052962;28;20091;-62
2022/02/26 13:54:53;;;;;;;23.25;14.27;;;;;;;;;;5056015;28;20029;-62
2022/02/26 13:57:21;;;;;;;20.23;13.43;;;;;;;;;;5056021;28;20035;-62
2022/02/26 13:59:47;;;;;;;19.73;12.30;;;;;;;;;;5056101;28;20043;-62
2022/02/26 14:02:20;;;;;;;22.10;13.02;;;;;;;;;;5056012;28;20013;-62
2022/02/26 14:04:46;;;;;;;21.05;12.75;;;;;;;;;;5055964;28;20032;-62
2022/02/26 14:07:11;;;;;;;19.02;12.18;;;;;;;;;;5055892;28;20017;-62
2022/02/26 14:09:41;;;;;;;22.75;13.25;;;;;;;;;;5055903;28;20384;-62
2022/02/26 14:12:07;;;;;;;20.88;12.73;;;;;;;;;;5055862;28;20060;-62